Almozara, Spain
Current Conditions -  °F | °C
As of 10:30 AM on Thursday 23 Oct 2014 (Local Time) from LEZG Reporting Station
Clear Clear  
Wind Chill: 13°   Ceiling: Unl
Heat Index: 13°   Visibility: 6mi
Dew Point:   Wind: 17mph
Humidity: 41%   Direction: 300°WNW
Pressure: 30.24"   Gusts: NA
Location:  41.66°N, 0.9°W
Report Text: LEZG 230830Z 30015KT CAVOK 13/00 Q1024
Loading
Personal Weather Stations






























Interactive Weather Map
Tropical Storm Tracking
New forecast layout! Learn more

10-Day Weather Forecast

Advertisements
Track Severe Weather on mobile